createdAt,value
2017-09-21T00:01:54.670Z,10.10
2017-09-21T00:04:23.533Z,10.10
2017-09-21T00:06:51.694Z,10.10
2017-09-21T00:09:19.875Z,10.10
2017-09-21T00:11:47.982Z,10.10
2017-09-21T00:14:16.843Z,10.30
2017-09-21T00:16:45.001Z,10.30
2017-09-21T00:19:13.117Z,10.20
2017-09-21T00:21:41.578Z,10.30
2017-09-21T00:24:09.739Z,10.20
2017-09-21T00:26:38.221Z,10.20
2017-09-21T00:29:06.390Z,10.30
2017-09-21T00:31:34.473Z,10.30
2017-09-21T00:34:02.586Z,10.20
2017-09-21T00:36:31.123Z,10.30
2017-09-21T00:38:59.225Z,10.30
2017-09-21T00:41:28.177Z,10.30
2017-09-21T00:43:56.662Z,10.20
2017-09-21T00:46:24.833Z,10.20
2017-09-21T00:48:53.351Z,10.20
2017-09-21T00:51:21.902Z,10.10
2017-09-21T00:53:49.986Z,10.10
2017-09-21T00:56:18.094Z,10.10
2017-09-21T00:58:46.630Z,10.10
2017-09-21T01:01:14.742Z,10.10
2017-09-21T01:03:43.701Z,10.10
2017-09-21T01:06:12.183Z,10.10
2017-09-21T01:08:40.354Z,10.00
2017-09-21T01:11:08.526Z,10.10
2017-09-21T01:13:36.707Z,10.10
2017-09-21T01:16:06.310Z,10.10
2017-09-21T01:18:34.398Z,10.10
2017-09-21T01:21:04.402Z,10.10
2017-09-21T01:23:32.577Z,10.10
2017-09-21T01:26:00.668Z,10.00
2017-09-21T01:28:29.225Z,10.20
2017-09-21T01:30:57.346Z,10.20
2017-09-21T01:33:25.473Z,10.10
2017-09-21T01:35:53.690Z,10.10
2017-09-21T01:38:22.207Z,10.00
2017-09-21T01:40:50.290Z,10.00
2017-09-21T01:43:18.774Z,10.00
2017-09-21T01:45:46.874Z,9.80
2017-09-21T01:48:14.954Z,9.90
2017-09-21T01:50:43.050Z,9.90
2017-09-21T01:53:11.131Z,9.90
2017-09-21T01:55:40.002Z,9.80
2017-09-21T01:58:08.846Z,9.80
2017-09-21T02:00:36.926Z,9.80
2017-09-21T02:03:05.058Z,9.80
2017-09-21T02:05:33.535Z,9.80
2017-09-21T02:08:02.033Z,9.80
2017-09-21T02:10:30.878Z,9.60
2017-09-21T02:12:58.958Z,9.70
2017-09-21T02:15:27.830Z,9.70
2017-09-21T02:17:57.413Z,9.70
2017-09-21T02:20:25.499Z,9.80
2017-09-21T02:22:53.598Z,9.70
2017-09-21T02:25:22.449Z,9.70
2017-09-21T02:27:50.543Z,9.70
2017-09-21T02:30:18.725Z,9.70
2017-09-21T02:32:46.822Z,9.60
2017-09-21T02:35:15.295Z,9.60
2017-09-21T02:37:44.154Z,9.50
2017-09-21T02:40:12.234Z,9.60
2017-09-21T02:42:40.341Z,9.60
2017-09-21T02:45:09.190Z,9.50
2017-09-21T02:47:37.322Z,9.50
2017-09-21T02:50:05.426Z,9.50
2017-09-21T02:52:33.506Z,9.50
2017-09-21T02:55:01.582Z,9.50
2017-09-21T02:57:29.679Z,9.50
2017-09-21T02:59:58.548Z,9.50
2017-09-21T03:02:26.629Z,9.50
2017-09-21T03:04:54.725Z,9.50
2017-09-21T03:07:23.590Z,9.40
2017-09-21T03:09:51.670Z,9.40
2017-09-21T03:12:19.746Z,9.30
2017-09-21T03:14:47.842Z,9.40
2017-09-21T03:17:15.922Z,9.40
2017-09-21T03:19:44.139Z,9.30
2017-09-21T03:22:12.314Z,9.40
2017-09-21T03:24:40.400Z,9.30
2017-09-21T03:27:08.885Z,9.40
2017-09-21T03:29:36.978Z,9.30
2017-09-21T03:32:05.856Z,9.30
2017-09-21T03:34:33.918Z,9.20
2017-09-21T03:37:01.990Z,9.30
2017-09-21T03:39:30.082Z,9.30
2017-09-21T03:41:58.917Z,9.30
2017-09-21T03:44:27.010Z,9.30
2017-09-21T03:46:55.080Z,9.30
2017-09-21T03:49:23.562Z,9.30
2017-09-21T03:51:51.654Z,9.20
2017-09-21T03:54:20.499Z,9.20
2017-09-21T03:56:48.698Z,9.30
2017-09-21T03:59:17.562Z,9.30
2017-09-21T04:01:45.639Z,9.20
2017-09-21T04:04:14.855Z,9.30
2017-09-21T04:06:43.351Z,9.20
2017-09-21T04:09:11.424Z,9.20
2017-09-21T04:11:39.499Z,9.20
2017-09-21T04:14:07.598Z,9.10
2017-09-21T04:16:36.442Z,9.20
2017-09-21T04:19:04.539Z,9.10
2017-09-21T04:21:32.614Z,9.10
2017-09-21T04:24:00.710Z,9.30
2017-09-21T04:26:28.786Z,9.30
2017-09-21T04:28:56.886Z,9.40
2017-09-21T04:31:24.962Z,9.50
2017-09-21T04:33:53.050Z,9.50
2017-09-21T04:42:43.488Z,9.50
2017-09-21T04:45:12.121Z,9.50
2017-09-21T04:47:40.969Z,9.50
2017-09-21T04:50:09.051Z,9.50
2017-09-21T04:52:37.143Z,9.50
2017-09-21T04:55:05.248Z,9.50
2017-09-21T04:57:34.079Z,9.50
2017-09-21T05:00:02.187Z,9.50
2017-09-21T05:04:59.994Z,9.60
2017-09-21T05:07:28.087Z,9.70
2017-09-21T05:09:57.315Z,9.60
2017-09-21T05:12:25.394Z,9.60
2017-09-21T05:14:53.545Z,9.20
2017-09-21T05:17:21.726Z,9.10
2017-09-21T05:19:49.800Z,9.10
2017-09-21T05:22:18.639Z,8.90
2017-09-21T05:24:47.587Z,8.80
2017-09-21T05:27:15.677Z,8.80
2017-09-21T05:29:43.835Z,8.80
2017-09-21T05:32:11.998Z,8.80
2017-09-21T05:34:40.083Z,8.80
2017-09-21T05:37:08.274Z,8.70
2017-09-21T05:39:36.425Z,8.90
2017-09-21T05:42:05.006Z,8.80
2017-09-21T05:44:33.177Z,8.90
2017-09-21T05:47:01.654Z,8.80
2017-09-21T05:49:30.117Z,8.80
2017-09-21T05:51:58.243Z,8.80
2017-09-21T05:54:26.807Z,8.70
2017-09-21T05:56:54.979Z,8.60
2017-09-21T05:59:23.146Z,8.60
2017-09-21T06:01:51.615Z,8.70
2017-09-21T06:04:19.690Z,8.70
2017-09-21T06:06:48.178Z,8.70
2017-09-21T06:09:16.665Z,8.70
2017-09-21T06:11:44.737Z,8.80
2017-09-21T06:14:13.325Z,8.90
2017-09-21T06:16:41.494Z,8.90
2017-09-21T06:19:09.585Z,9.10
2017-09-21T06:21:37.743Z,9.10
2017-09-21T06:24:05.917Z,9.10
2017-09-21T06:26:34.085Z,9.20
2017-09-21T06:29:02.262Z,9.20
2017-09-21T06:31:30.341Z,9.30
2017-09-21T06:33:58.506Z,9.40
2017-09-21T06:36:26.694Z,9.50
2017-09-21T06:38:54.865Z,9.60
2017-09-21T06:41:23.745Z,9.60
2017-09-21T06:43:51.917Z,9.70
2017-09-21T06:46:20.101Z,9.60
2017-09-21T06:48:48.265Z,9.80
2017-09-21T06:51:16.442Z,9.90
2017-09-21T06:53:44.518Z,9.90
2017-09-21T06:56:13.098Z,9.80
2017-09-21T06:58:41.681Z,9.90
2017-09-21T07:01:09.858Z,9.90
2017-09-21T07:03:38.437Z,10.00
2017-09-21T07:06:06.643Z,10.20
2017-09-21T07:08:34.746Z,10.20
2017-09-21T07:11:02.869Z,10.20
2017-09-21T07:13:31.364Z,10.30
2017-09-21T07:15:59.857Z,10.30
2017-09-21T07:18:28.705Z,10.30
2017-09-21T07:20:56.806Z,10.40
2017-09-21T07:23:24.899Z,10.50
2017-09-21T07:25:53.755Z,10.60
2017-09-21T07:28:21.858Z,10.70
2017-09-21T07:30:50.715Z,10.90
2017-09-21T07:33:19.232Z,10.80
2017-09-21T07:35:48.077Z,10.80
2017-09-21T07:38:16.564Z,10.80
2017-09-21T07:40:44.672Z,10.90
2017-09-21T07:43:13.159Z,10.80
2017-09-21T07:45:41.676Z,10.80
2017-09-21T07:48:10.525Z,10.70
2017-09-21T07:50:39.380Z,10.90
2017-09-21T07:53:07.500Z,10.90
2017-09-21T07:55:36.450Z,11.00
2017-09-21T07:58:04.542Z,11.10
2017-09-21T08:00:32.649Z,11.10
2017-09-21T08:03:00.766Z,11.20
2017-09-21T08:05:28.937Z,11.20
2017-09-21T08:07:57.126Z,11.30
2017-09-21T08:10:25.211Z,11.30
2017-09-21T08:12:53.367Z,11.20
2017-09-21T08:15:21.455Z,11.30
2017-09-21T08:17:50.017Z,11.30
2017-09-21T08:20:18.109Z,11.40
2017-09-21T08:22:46.673Z,11.30
2017-09-21T08:25:14.845Z,11.40
2017-09-21T08:27:42.965Z,11.40
2017-09-21T08:30:11.474Z,11.50
2017-09-21T08:32:39.567Z,11.50
2017-09-21T08:35:07.654Z,11.60
2017-09-21T08:37:35.763Z,11.70
2017-09-21T08:40:04.714Z,11.70
2017-09-21T08:42:33.608Z,11.70
2017-09-21T08:45:01.783Z,11.70
2017-09-21T08:47:29.957Z,11.90
2017-09-21T08:49:58.121Z,11.80
2017-09-21T08:52:26.604Z,12.00
2017-09-21T08:54:54.699Z,11.90
2017-09-21T08:57:23.266Z,12.10
2017-09-21T08:59:51.369Z,12.20
2017-09-21T09:02:20.226Z,12.20
2017-09-21T09:04:48.412Z,12.30
2017-09-21T09:07:16.577Z,12.30
2017-09-21T09:09:44.653Z,12.30
2017-09-21T09:12:12.827Z,12.30
2017-09-21T09:14:42.530Z,12.40
2017-09-21T09:17:10.701Z,12.40
2017-09-21T09:19:38.892Z,12.40
2017-09-21T09:22:08.590Z,12.30
2017-09-21T09:24:36.694Z,12.40
2017-09-21T09:27:05.546Z,12.30
2017-09-21T09:29:33.731Z,12.30
2017-09-21T09:32:01.991Z,12.40
2017-09-21T09:34:30.488Z,12.60
2017-09-21T09:36:58.566Z,12.70
2017-09-21T09:39:26.722Z,12.90
2017-09-21T09:41:54.912Z,13.10
2017-09-21T09:44:23.003Z,13.10
2017-09-21T09:46:51.505Z,13.30
2017-09-21T09:49:19.990Z,13.30
2017-09-21T09:51:48.114Z,13.40
2017-09-21T09:54:16.617Z,13.40
2017-09-21T09:56:45.177Z,13.30
2017-09-21T09:59:13.362Z,13.50
2017-09-21T10:01:41.499Z,13.50
2017-09-21T10:04:09.577Z,13.70
2017-09-21T10:06:37.685Z,13.70
2017-09-21T10:09:05.841Z,13.80
2017-09-21T10:11:33.922Z,13.90
2017-09-21T10:14:02.089Z,14.00
2017-09-21T10:16:30.169Z,14.20
2017-09-21T10:18:58.282Z,14.40
2017-09-21T10:21:26.797Z,14.60
2017-09-21T10:23:54.891Z,14.60
2017-09-21T10:26:23.066Z,14.70
2017-09-21T10:28:51.656Z,14.90
2017-09-21T10:31:19.769Z,15.10
2017-09-21T10:33:47.894Z,15.90
2017-09-21T10:36:15.974Z,16.90
2017-09-21T10:38:44.142Z,17.70
2017-09-21T10:41:12.225Z,18.30
2017-09-21T10:43:40.385Z,18.60
2017-09-21T10:46:08.565Z,18.70
2017-09-21T10:48:36.649Z,19.00
2017-09-21T10:51:04.761Z,19.50
2017-09-21T10:53:32.850Z,19.90
2017-09-21T10:56:00.939Z,20.20
2017-09-21T10:58:29.051Z,20.40
2017-09-21T11:00:57.137Z,20.60
2017-09-21T11:03:26.015Z,20.60
2017-09-21T11:05:54.093Z,20.90
2017-09-21T11:08:22.969Z,20.80
2017-09-21T11:10:51.050Z,20.90
2017-09-21T11:13:19.927Z,20.90
2017-09-21T11:15:48.033Z,20.90
2017-09-21T11:18:16.138Z,21.60
2017-09-21T11:20:44.221Z,21.80
2017-09-21T11:23:12.328Z,21.90
2017-09-21T11:25:40.426Z,22.20
2017-09-21T11:28:08.521Z,22.10
2017-09-21T11:30:36.631Z,22.60
2017-09-21T11:33:04.782Z,22.90
2017-09-21T11:35:32.857Z,23.30
2017-09-21T11:38:00.953Z,23.60
2017-09-21T11:40:29.041Z,24.10
2017-09-21T11:42:57.910Z,24.50
2017-09-21T11:45:26.394Z,24.50
2017-09-21T11:47:54.501Z,24.70
2017-09-21T11:50:23.346Z,24.80
2017-09-21T11:52:51.435Z,25.20
2017-09-21T11:55:19.933Z,25.20
2017-09-21T11:57:48.787Z,25.40
2017-09-21T12:00:16.901Z,25.80
2017-09-21T12:02:46.439Z,25.70
2017-09-21T12:05:14.537Z,26.50
2017-09-21T12:07:43.389Z,26.50
2017-09-21T12:10:11.911Z,26.80
2017-09-21T12:12:40.397Z,26.70
2017-09-21T12:15:08.478Z,26.30
2017-09-21T12:17:36.591Z,26.40
2017-09-21T12:20:04.674Z,26.70
2017-09-21T12:22:32.805Z,26.80
2017-09-21T12:25:00.926Z,26.90
2017-09-21T12:27:29.010Z,27.00
2017-09-21T12:29:57.095Z,27.00
2017-09-21T12:32:25.198Z,27.30
2017-09-21T12:34:54.063Z,27.60
2017-09-21T12:37:22.146Z,27.50
2017-09-21T12:39:50.234Z,27.50
2017-09-21T12:42:18.348Z,27.70
2017-09-21T12:44:46.422Z,28.10
2017-09-21T12:47:14.526Z,28.00
2017-09-21T12:49:42.605Z,27.90
2017-09-21T12:52:10.686Z,28.50
2017-09-21T12:54:38.778Z,28.10
2017-09-21T12:57:06.842Z,28.30
2017-09-21T12:59:34.929Z,27.80
2017-09-21T13:02:03.798Z,27.90
2017-09-21T13:04:32.267Z,28.30
2017-09-21T13:07:00.350Z,28.80
2017-09-21T13:09:28.463Z,28.70
2017-09-21T13:11:56.934Z,28.40
2017-09-21T13:14:25.415Z,28.40
2017-09-21T13:16:53.534Z,28.40
2017-09-21T13:19:21.609Z,28.50
2017-09-21T13:21:49.706Z,28.40
2017-09-21T13:24:17.798Z,28.50
2017-09-21T13:26:46.643Z,28.70
2017-09-21T13:29:14.737Z,28.90
2017-09-21T13:31:42.818Z,28.80
2017-09-21T13:34:10.909Z,28.50
2017-09-21T13:36:39.772Z,28.80
2017-09-21T13:39:07.866Z,28.90
2017-09-21T13:41:36.702Z,28.70
2017-09-21T13:44:05.198Z,29.40
2017-09-21T13:46:34.041Z,29.50
2017-09-21T13:49:02.147Z,29.60
2017-09-21T13:51:30.235Z,29.50
2017-09-21T13:53:58.320Z,29.50
2017-09-21T13:56:26.425Z,29.30
2017-09-21T13:58:55.266Z,29.20
2017-09-21T14:01:23.339Z,28.90
2017-09-21T14:03:51.447Z,28.90
2017-09-21T14:06:20.277Z,29.40
2017-09-21T14:08:48.374Z,29.40
2017-09-21T14:11:17.833Z,29.40
2017-09-21T14:13:46.294Z,29.10
2017-09-21T14:16:15.149Z,28.90
2017-09-21T14:18:43.226Z,28.90
2017-09-21T14:21:11.310Z,29.10
2017-09-21T14:23:39.374Z,29.10
2017-09-21T14:26:07.472Z,29.30
2017-09-21T14:28:35.542Z,29.50
2017-09-21T14:31:03.667Z,29.50
2017-09-21T14:33:31.739Z,29.50
2017-09-21T14:35:59.810Z,29.40
2017-09-21T14:38:27.894Z,29.50
2017-09-21T14:40:55.957Z,29.70
2017-09-21T14:43:24.049Z,29.60
2017-09-21T14:45:52.119Z,29.70
2017-09-21T14:48:20.191Z,29.70
2017-09-21T14:50:48.317Z,29.60
2017-09-21T14:53:16.391Z,28.60
2017-09-21T14:55:44.461Z,28.50
2017-09-21T14:58:12.550Z,27.50
2017-09-21T15:00:40.628Z,27.80
2017-09-21T15:03:08.702Z,27.60
2017-09-21T15:05:36.809Z,27.50
2017-09-21T15:08:04.887Z,27.50
2017-09-21T15:10:32.971Z,27.20
2017-09-21T15:13:01.837Z,27.30
2017-09-21T15:15:29.893Z,27.50
2017-09-21T15:17:58.003Z,27.50
2017-09-21T15:20:26.855Z,27.80
2017-09-21T15:22:54.929Z,27.80
2017-09-21T15:25:23.106Z,27.80
2017-09-21T15:27:51.619Z,27.20
2017-09-21T15:30:20.464Z,26.90
2017-09-21T15:32:48.534Z,26.90
2017-09-21T15:35:16.629Z,26.70
2017-09-21T15:37:44.698Z,26.50
2017-09-21T15:40:12.854Z,26.40
2017-09-21T15:42:40.894Z,26.10
2017-09-21T15:45:08.971Z,25.90
2017-09-21T15:47:37.078Z,25.80
2017-09-21T15:50:05.145Z,24.80
2017-09-21T15:52:33.221Z,24.50
2017-09-21T15:55:01.390Z,24.50
2017-09-21T15:57:30.201Z,24.70
2017-09-21T15:59:58.279Z,24.40
2017-09-21T16:02:26.768Z,24.10
2017-09-21T16:04:55.268Z,23.90
2017-09-21T16:07:24.118Z,23.60
2017-09-21T16:09:52.227Z,23.10
2017-09-21T16:12:20.689Z,22.60
2017-09-21T16:14:48.758Z,22.10
2017-09-21T16:17:16.862Z,21.70
2017-09-21T16:19:45.711Z,21.20
2017-09-21T16:22:13.777Z,20.70
2017-09-21T16:24:41.874Z,20.50
2017-09-21T16:27:09.950Z,20.30
2017-09-21T16:29:38.063Z,20.00
2017-09-21T16:32:06.149Z,19.60
2017-09-21T16:34:34.242Z,19.10
2017-09-21T16:37:02.340Z,18.60
2017-09-21T16:39:30.418Z,18.30
2017-09-21T16:41:59.259Z,18.20
2017-09-21T16:44:27.349Z,17.80
2017-09-21T16:46:55.438Z,17.60
2017-09-21T16:49:23.548Z,17.40
2017-09-21T16:51:51.613Z,17.30
2017-09-21T16:54:19.681Z,17.10
2017-09-21T16:56:48.605Z,16.90
2017-09-21T16:59:16.694Z,16.80
2017-09-21T17:01:44.811Z,16.60
2017-09-21T17:04:13.653Z,16.60
2017-09-21T17:06:41.744Z,16.50
2017-09-21T17:09:09.838Z,16.30
2017-09-21T17:11:38.617Z,16.20
2017-09-21T17:14:06.690Z,16.00
2017-09-21T17:16:34.783Z,15.90
2017-09-21T17:19:03.641Z,15.80
2017-09-21T17:21:31.742Z,15.70
2017-09-21T17:24:00.613Z,15.60
2017-09-21T17:26:28.717Z,15.50
2017-09-21T17:28:56.781Z,15.40
2017-09-21T17:36:23.563Z,15.50
2017-09-21T17:38:52.432Z,15.40
2017-09-21T17:41:20.517Z,15.20
2017-09-21T17:43:49.378Z,15.20
2017-09-21T17:48:47.565Z,15.00
2017-09-21T17:51:16.402Z,15.00
2017-09-21T17:53:44.523Z,14.90
2017-09-21T17:56:12.591Z,14.90
2017-09-21T17:58:41.449Z,15.00
2017-09-21T18:01:09.521Z,15.00
2017-09-21T18:03:37.618Z,14.80
2017-09-21T18:06:07.235Z,14.80
2017-09-21T18:08:35.326Z,14.70
2017-09-21T18:11:03.409Z,14.50
2017-09-21T18:13:31.520Z,14.30
2017-09-21T18:15:59.602Z,14.30
2017-09-21T18:18:27.670Z,14.30
2017-09-21T18:20:55.772Z,14.10
2017-09-21T18:23:23.851Z,14.20
2017-09-21T18:25:51.922Z,14.30
2017-09-21T18:28:20.017Z,14.20
2017-09-21T18:30:50.059Z,14.10
2017-09-21T18:33:18.911Z,14.00
2017-09-21T18:35:47.113Z,13.90
2017-09-21T18:38:16.459Z,13.90
2017-09-21T18:40:44.530Z,13.90
2017-09-21T18:43:12.642Z,13.80
2017-09-21T18:45:42.260Z,13.80
2017-09-21T18:48:11.520Z,13.80
2017-09-21T18:53:09.003Z,13.80
2017-09-21T18:55:37.090Z,13.70
2017-09-21T18:58:05.191Z,13.70
2017-09-21T19:00:33.265Z,13.60
2017-09-21T19:03:01.734Z,13.60
2017-09-21T19:07:59.586Z,13.60
2017-09-21T19:10:27.674Z,13.50
2017-09-21T19:12:57.356Z,13.60
2017-09-21T19:15:25.460Z,13.50
2017-09-21T19:17:53.538Z,13.50
2017-09-21T19:20:22.375Z,13.50
2017-09-21T19:22:50.472Z,13.50
2017-09-21T19:25:18.542Z,13.50
2017-09-21T19:27:47.142Z,13.50
2017-09-21T19:32:44.577Z,13.40
2017-09-21T19:35:12.637Z,13.40
2017-09-21T19:37:41.498Z,13.40
2017-09-21T19:40:10.329Z,13.40
2017-09-21T19:42:39.563Z,13.30
2017-09-21T19:45:07.639Z,13.30
2017-09-21T19:47:35.738Z,13.20
2017-09-21T19:50:04.578Z,13.20
2017-09-21T19:52:32.647Z,13.10
2017-09-21T19:55:01.513Z,13.10
2017-09-21T19:57:29.603Z,13.20
2017-09-21T19:59:57.711Z,13.20
2017-09-21T20:04:56.640Z,13.20
2017-09-21T20:07:25.479Z,13.20
2017-09-21T20:09:53.563Z,13.30
2017-09-21T20:12:21.658Z,13.30
2017-09-21T20:14:49.770Z,13.20
2017-09-21T20:17:17.862Z,13.10
2017-09-21T20:19:46.693Z,13.20
2017-09-21T20:22:14.787Z,13.20
2017-09-21T20:24:43.626Z,13.20
2017-09-21T20:27:12.533Z,13.20
2017-09-21T20:29:42.216Z,13.20
2017-09-21T20:34:39.598Z,13.20
2017-09-21T20:37:07.697Z,13.20
2017-09-21T20:39:37.370Z,13.20
2017-09-21T20:42:06.569Z,13.20
2017-09-21T20:44:35.410Z,13.20
2017-09-21T20:47:04.246Z,13.20
2017-09-21T20:49:32.424Z,13.20
2017-09-21T20:52:00.465Z,13.10
2017-09-21T20:54:29.301Z,13.10
2017-09-21T20:56:57.399Z,13.10
2017-09-21T20:59:26.610Z,13.10
2017-09-21T21:01:55.472Z,13.00
2017-09-21T21:04:23.554Z,13.00
2017-09-21T21:06:53.129Z,13.10
2017-09-21T21:09:21.618Z,13.10
2017-09-21T21:11:49.707Z,13.10
2017-09-21T21:14:17.814Z,13.10
2017-09-21T21:16:46.651Z,13.10
2017-09-21T21:19:14.722Z,13.00
2017-09-21T21:21:42.835Z,12.90
2017-09-21T21:24:11.690Z,12.90
2017-09-21T21:26:39.757Z,12.90
2017-09-21T21:29:07.837Z,12.90
2017-09-21T21:31:35.918Z,12.90
2017-09-21T21:34:04.006Z,12.90
2017-09-21T21:36:32.086Z,12.90
2017-09-21T21:39:01.699Z,12.90
2017-09-21T21:41:30.533Z,13.00
2017-09-21T21:43:58.603Z,12.90
2017-09-21T21:46:26.694Z,12.90
2017-09-21T21:48:54.761Z,12.90
2017-09-21T21:51:22.859Z,12.90
2017-09-21T21:53:52.448Z,12.90
2017-09-21T21:56:20.513Z,13.00
2017-09-21T21:58:48.619Z,13.00
2017-09-21T22:01:17.459Z,12.90
2017-09-21T22:03:45.531Z,12.90
2017-09-21T22:06:13.626Z,12.90
2017-09-21T22:08:41.705Z,12.90
2017-09-21T22:11:09.779Z,12.90
2017-09-21T22:13:37.865Z,12.80
2017-09-21T22:16:06.735Z,12.80
2017-09-21T22:18:34.805Z,12.90
2017-09-21T22:21:02.882Z,12.90
2017-09-21T22:26:00.343Z,12.90
2017-09-21T22:28:28.409Z,12.90
2017-09-21T22:30:56.495Z,12.90
2017-09-21T22:33:24.581Z,12.90
2017-09-21T22:35:52.659Z,12.90
2017-09-21T22:38:22.261Z,12.80
2017-09-21T22:40:50.334Z,12.90
2017-09-21T22:43:18.406Z,12.80
2017-09-21T22:45:46.493Z,12.80
2017-09-21T22:48:15.340Z,12.80
2017-09-21T22:50:44.192Z,12.90
2017-09-21T22:53:12.273Z,12.90
2017-09-21T22:55:40.387Z,12.90
2017-09-21T22:58:08.462Z,12.80
2017-09-21T23:00:38.037Z,12.80
2017-09-21T23:03:07.274Z,12.80
2017-09-21T23:05:35.354Z,12.70
2017-09-21T23:10:33.187Z,12.50
2017-09-21T23:13:01.651Z,12.40
2017-09-21T23:15:29.722Z,12.30
2017-09-21T23:17:57.809Z,12.20
2017-09-21T23:20:26.709Z,12.20
2017-09-21T23:22:54.777Z,12.10
2017-09-21T23:25:22.845Z,12.10
2017-09-21T23:27:51.697Z,12.10
2017-09-21T23:30:20.533Z,12.00
2017-09-21T23:32:48.642Z,12.00
2017-09-21T23:35:16.714Z,11.90
2017-09-21T23:37:44.799Z,12.00
2017-09-21T23:40:13.265Z,12.00
2017-09-21T23:42:41.342Z,12.10
2017-09-21T23:45:09.447Z,12.00
2017-09-21T23:47:38.285Z,12.10
2017-09-21T23:50:06.362Z,12.10
2017-09-21T23:52:34.501Z,12.20
2017-09-21T23:55:03.314Z,12.30
2017-09-21T23:57:31.394Z,12.40
